createdAt,value
2022-10-29T00:00:06.541Z,100501.00
2022-10-29T00:02:36.401Z,100492.22
2022-10-29T00:05:04.562Z,100475.97
2022-10-29T00:07:32.430Z,100474.16
2022-10-29T00:10:00.388Z,100474.16
2022-10-29T00:12:30.003Z,100468.78
2022-10-29T00:14:57.871Z,100465.25
2022-10-29T00:17:25.772Z,100460.75
2022-10-29T00:19:53.720Z,100450.00
2022-10-29T00:22:21.684Z,100448.28
2022-10-29T00:24:49.559Z,100433.91
2022-10-29T00:27:17.478Z,100433.06
2022-10-29T00:29:46.697Z,100432.94
2022-10-29T00:32:14.661Z,100429.66
2022-10-29T00:34:42.566Z,100429.41
2022-10-29T00:37:10.453Z,100428.53
2022-10-29T00:39:38.313Z,100425.88
2022-10-29T00:42:06.302Z,100420.50
2022-10-29T00:44:36.463Z,100414.28
2022-10-29T00:47:17.900Z,100413.31
2022-10-29T00:49:48.640Z,100398.81
2022-10-29T00:52:17.772Z,100405.38
2022-10-29T00:54:47.976Z,100403.69
2022-10-29T00:57:21.019Z,100400.84
2022-10-29T01:02:25.017Z,100391.94
2022-10-29T01:04:54.189Z,100384.06
2022-10-29T01:07:23.336Z,100368.44
2022-10-29T01:09:51.900Z,100370.63
2022-10-29T01:12:56.640Z,100361.72
2022-10-29T01:15:30.174Z,100357.38
2022-10-29T01:18:11.152Z,100350.88
2022-10-29T01:21:02.405Z,100344.66
2022-10-29T01:23:56.451Z,100348.31
2022-10-29T01:26:48.866Z,100347.47
2022-10-29T01:29:36.752Z,100339.56
2022-10-29T01:32:13.115Z,100338.59
2022-10-29T01:34:47.767Z,100334.19
2022-10-29T01:37:21.607Z,100326.00
2022-10-29T01:39:56.913Z,100314.28
2022-10-29T01:42:30.768Z,100313.44
2022-10-29T01:45:05.123Z,100308.94
2022-10-29T01:47:41.797Z,100300.88
2022-10-29T01:50:14.163Z,100294.66
2022-10-29T01:52:43.595Z,100291.25
2022-10-29T01:55:11.533Z,100283.06
2022-10-29T01:57:40.096Z,100281.25
2022-10-29T02:00:10.688Z,100258.81
2022-10-29T02:03:00.043Z,100245.50
2022-10-29T02:05:34.962Z,100246.38
2022-10-29T02:08:15.185Z,100246.38
2022-10-29T02:10:49.408Z,100223.28
2022-10-29T02:13:20.580Z,100242.00
2022-10-29T02:15:51.348Z,100231.28
2022-10-29T02:18:20.960Z,100219.69
2022-10-29T02:20:49.013Z,100217.84
2022-10-29T02:23:17.324Z,100217.00
2022-10-29T02:25:45.603Z,100212.50
2022-10-29T02:28:13.649Z,100205.41
2022-10-29T02:30:41.580Z,100192.97
2022-10-29T02:33:09.467Z,100193.72
2022-10-29T02:35:38.710Z,100190.19
2022-10-29T02:38:06.631Z,100177.63
2022-10-29T02:40:34.562Z,100174.09
2022-10-29T02:43:02.415Z,100173.22
2022-10-29T02:45:30.300Z,100166.03
2022-10-29T02:47:58.423Z,100154.59
2022-10-29T02:50:26.478Z,100150.78
2022-10-29T02:52:55.703Z,100145.44
2022-10-29T02:55:23.653Z,100152.63
2022-10-29T02:57:51.575Z,100133.84
2022-10-29T03:00:19.912Z,100140.06
2022-10-29T03:02:51.129Z,100139.22
2022-10-29T03:05:19.150Z,100116.91
2022-10-29T03:07:46.999Z,100132.00
2022-10-29T03:10:16.414Z,100135.41
2022-10-29T03:12:44.299Z,100121.13
2022-10-29T03:15:12.358Z,100098.19
2022-10-29T03:17:40.245Z,100111.25
2022-10-29T03:20:09.041Z,100105.91
2022-10-29T03:22:37.761Z,100113.09
2022-10-29T03:25:06.204Z,100107.72
2022-10-29T03:27:41.663Z,100096.03
2022-10-29T03:30:11.259Z,100097.84
2022-10-29T03:32:40.933Z,100076.50
2022-10-29T03:35:10.407Z,100075.38
2022-10-29T03:37:38.426Z,100086.09
2022-10-29T03:40:07.232Z,100081.47
2022-10-29T03:42:36.523Z,100074.41
2022-10-29T03:45:04.860Z,100070.31
2022-10-29T03:47:34.367Z,100068.19
2022-10-29T03:50:02.258Z,100061.16
2022-10-29T03:52:30.155Z,100062.81
2022-10-29T03:54:58.024Z,100062.81
2022-10-29T03:57:26.001Z,100044.63
2022-10-29T03:59:56.114Z,100057.19
2022-10-29T04:02:24.540Z,100046.19
2022-10-29T04:04:52.489Z,100054.66
2022-10-29T04:07:20.648Z,100043.91
2022-10-29T04:09:48.576Z,100044.75
2022-10-29T04:12:16.569Z,100045.59
2022-10-29T04:14:45.946Z,100045.59
2022-10-29T04:17:15.542Z,100033.75
2022-10-29T04:19:43.684Z,100032.19
2022-10-29T04:30:35.319Z,100009.88
2022-10-29T04:33:04.697Z,100005.22
2022-10-29T04:35:32.632Z,100005.22
2022-10-29T04:38:00.506Z,99994.34
2022-10-29T04:40:28.359Z,99992.53
2022-10-29T04:42:56.520Z,99979.97
2022-10-29T04:45:24.793Z,99980.22
2022-10-29T04:48:00.174Z,99981.50
2022-10-29T04:50:29.564Z,99978.09
2022-10-29T04:52:59.619Z,99982.47
2022-10-29T04:55:27.942Z,99975.28
2022-10-29T04:57:56.184Z,99967.25
2022-10-29T05:00:24.951Z,99970.63
2022-10-29T05:02:54.211Z,99973.31
2022-10-29T05:05:23.061Z,99957.75
2022-10-29T05:07:57.770Z,99973.19
2022-10-29T05:10:26.776Z,99958.06
2022-10-29T05:12:58.594Z,99950.00
2022-10-29T05:15:27.436Z,99966.25
2022-10-29T05:17:55.831Z,99961.72
2022-10-29T05:20:24.602Z,99941.25
2022-10-29T05:22:59.751Z,99962.56
2022-10-29T05:25:28.058Z,99952.84
2022-10-29T05:28:03.332Z,99947.31
2022-10-29T05:30:31.527Z,99954.69
2022-10-29T05:32:59.658Z,99955.53
2022-10-29T05:35:28.639Z,99946.47
2022-10-29T05:37:57.874Z,99943.66
2022-10-29T05:40:26.026Z,99941.09
2022-10-29T05:42:54.093Z,99934.88
2022-10-29T05:45:22.595Z,99934.88
2022-10-29T05:47:56.287Z,99943.78
2022-10-29T05:50:24.244Z,99939.28
2022-10-29T05:52:58.161Z,99943.66
2022-10-29T05:55:27.039Z,99938.44
2022-10-29T05:57:57.996Z,99940.13
2022-10-29T06:00:26.874Z,99935.75
2022-10-29T06:02:55.165Z,99936.59
2022-10-29T06:05:23.585Z,99939.28
2022-10-29T06:07:56.108Z,99937.16
2022-10-29T06:10:26.792Z,99940.84
2022-10-29T06:12:54.959Z,99939.97
2022-10-29T06:15:23.041Z,99946.19
2022-10-29T06:17:51.372Z,99945.34
2022-10-29T06:20:21.700Z,99942.53
2022-10-29T06:22:57.406Z,99950.44
2022-10-29T06:25:27.892Z,99938.59
2022-10-29T06:28:01.064Z,99954.09
2022-10-29T06:30:29.919Z,99953.28
2022-10-29T06:32:58.564Z,99968.63
2022-10-29T06:35:27.126Z,99973.88
2022-10-29T06:37:55.695Z,99978.25
2022-10-29T06:40:24.636Z,99974.75
2022-10-29T06:43:01.131Z,99978.25
2022-10-29T06:45:29.432Z,99985.59
2022-10-29T06:47:57.701Z,99991.97
2022-10-29T06:50:26.422Z,99994.50
2022-10-29T06:52:59.414Z,99997.19
2022-10-29T06:55:27.910Z,100007.06
2022-10-29T06:58:01.843Z,99995.34
2022-10-29T07:00:30.495Z,100002.81
2022-10-29T07:02:58.805Z,100015.25
2022-10-29T07:05:27.395Z,100009.03
2022-10-29T07:07:59.203Z,100014.56
2022-10-29T07:10:29.365Z,100024.28
2022-10-29T07:12:57.299Z,100032.34
2022-10-29T07:15:27.697Z,100039.41
2022-10-29T07:17:59.388Z,100026.97
2022-10-29T07:20:28.186Z,100025.28
2022-10-29T07:22:57.666Z,100022.47
2022-10-29T07:25:26.245Z,100023.44
2022-10-29T07:27:54.388Z,100014.56
2022-10-29T07:30:22.936Z,100019.34
2022-10-29T07:32:52.268Z,100030.50
2022-10-29T07:35:20.171Z,100030.66
2022-10-29T07:37:48.144Z,100022.72
2022-10-29T07:40:16.134Z,100030.66
2022-10-29T07:42:44.058Z,100037.69
2022-10-29T07:45:12.237Z,100037.97
2022-10-29T07:47:40.312Z,100029.81
2022-10-29T07:50:10.538Z,100037.69
2022-10-29T07:52:38.475Z,100037.00
2022-10-29T07:55:07.128Z,100024.56
2022-10-29T07:57:35.409Z,100027.13
2022-10-29T08:00:03.325Z,100035.16
2022-10-29T08:02:40.327Z,100035.16
2022-10-29T08:05:10.295Z,100035.16
2022-10-29T08:07:38.163Z,100023.28
2022-10-29T08:10:06.823Z,100037.97
2022-10-29T08:12:34.699Z,100032.75
2022-10-29T08:15:02.557Z,100034.59
2022-10-29T08:17:30.667Z,100027.50
2022-10-29T08:19:58.672Z,100033.63
2022-10-29T08:22:27.889Z,100026.53
2022-10-29T08:24:55.758Z,100013.13
2022-10-29T08:27:23.679Z,100041.94
2022-10-29T08:29:51.563Z,100036.41
2022-10-29T08:32:19.483Z,100036.56
2022-10-29T08:34:47.445Z,100040.94
2022-10-29T08:37:15.327Z,100056.22
2022-10-29T08:39:44.604Z,100052.66
2022-10-29T08:42:24.726Z,100054.34
2022-10-29T08:45:18.146Z,100045.47
2022-10-29T08:48:05.311Z,100040.22
2022-10-29T08:50:41.131Z,100061.41
2022-10-29T08:53:26.712Z,100037.53
2022-10-29T08:55:59.791Z,100038.56
2022-10-29T08:58:34.621Z,100028.53
2022-10-29T09:01:03.001Z,100036.69
2022-10-29T09:03:31.275Z,100030.50
2022-10-29T09:06:09.200Z,100037.53
2022-10-29T09:08:54.972Z,100036.69
2022-10-29T09:11:44.782Z,100040.22
2022-10-29T09:14:30.663Z,100040.22
2022-10-29T09:17:05.677Z,100039.09
2022-10-29T09:19:51.950Z,100039.81
2022-10-29T09:22:25.740Z,100037.00
2022-10-29T09:25:05.117Z,100037.84
2022-10-29T09:27:47.470Z,100046.59
2022-10-29T09:30:17.706Z,100041.25
2022-10-29T09:32:55.760Z,100019.63
2022-10-29T09:35:38.188Z,100042.09
2022-10-29T09:38:13.950Z,100051.00
2022-10-29T09:40:43.584Z,100051.81
2022-10-29T09:43:36.640Z,100046.19
2022-10-29T09:46:13.370Z,100040.09
2022-10-29T09:48:49.370Z,100048.84
2022-10-29T09:51:27.237Z,100049.00
2022-10-29T09:53:55.774Z,100019.78
2022-10-29T09:56:23.788Z,100044.50
2022-10-29T09:58:57.319Z,100042.50
2022-10-29T10:01:25.373Z,100057.91
2022-10-29T10:07:04.157Z,100058.63
2022-10-29T10:09:52.645Z,100050.56
2022-10-29T10:12:21.844Z,100051.53
2022-10-29T10:15:03.541Z,100052.94
2022-10-29T10:18:00.937Z,100062.00
2022-10-29T10:20:38.639Z,100064.25
2022-10-29T10:23:24.675Z,100065.66
2022-10-29T10:25:55.766Z,100065.66
2022-10-29T10:28:27.290Z,100064.25
2022-10-29T10:31:13.182Z,100082.50
2022-10-29T10:33:51.882Z,100073.59
2022-10-29T10:36:23.135Z,100052.53
2022-10-29T10:38:53.012Z,100090.66
2022-10-29T10:41:25.716Z,100088.13
2022-10-29T10:43:56.516Z,100097.59
2022-10-29T10:46:30.922Z,100088.56
2022-10-29T10:49:04.645Z,100092.22
2022-10-29T10:51:34.844Z,100093.22
2022-10-29T10:54:07.959Z,100102.84
2022-10-29T10:56:53.314Z,100100.16
2022-10-29T10:59:22.028Z,100099.31
2022-10-29T11:01:52.615Z,100108.22
2022-10-29T11:04:25.651Z,100092.09
2022-10-29T11:06:56.686Z,100104.50
2022-10-29T11:09:30.068Z,100111.59
2022-10-29T11:12:01.992Z,100096.47
2022-10-29T11:14:36.664Z,100107.34
2022-10-29T11:17:16.006Z,100110.63
2022-10-29T11:19:48.418Z,100115.13
2022-10-29T11:22:23.987Z,100099.16
2022-10-29T11:24:58.248Z,100103.25
2022-10-29T11:27:35.540Z,100108.47
2022-10-29T11:30:06.208Z,100116.53
2022-10-29T11:32:53.294Z,100116.53
2022-10-29T11:35:28.116Z,100105.94
2022-10-29T11:38:00.811Z,100105.09
2022-10-29T11:40:43.280Z,100107.50
2022-10-29T11:43:13.006Z,100102.69
2022-10-29T11:45:48.744Z,100116.41
2022-10-29T11:48:27.423Z,100125.28
2022-10-29T11:51:03.322Z,100123.47
2022-10-29T11:53:46.027Z,100129.69
2022-10-29T11:56:23.133Z,100114.84
2022-10-29T11:58:57.960Z,100134.06
2022-10-29T12:01:32.733Z,100126.03
2022-10-29T12:04:21.353Z,100135.91
2022-10-29T12:07:05.515Z,100138.59
2022-10-29T12:09:57.084Z,100130.38
2022-10-29T12:12:32.387Z,100140.41
2022-10-29T12:15:11.912Z,100122.19
2022-10-29T12:17:46.717Z,100139.28
2022-10-29T12:20:27.732Z,100150.03
2022-10-29T12:23:03.967Z,100139.28
2022-10-29T12:25:40.534Z,100152.72
2022-10-29T12:28:20.110Z,100150.72
2022-10-29T12:31:10.517Z,100154.28
2022-10-29T12:33:48.764Z,100153.41
2022-10-29T12:36:24.073Z,100151.59
2022-10-29T12:38:55.290Z,100148.91
2022-10-29T12:41:26.542Z,100147.06
2022-10-29T12:44:01.960Z,100151.44
2022-10-29T12:46:36.890Z,100151.44
2022-10-29T12:49:10.540Z,100157.94
2022-10-29T12:51:47.604Z,100152.28
2022-10-29T12:54:32.143Z,100146.81
2022-10-29T12:57:06.419Z,100149.47
2022-10-29T12:59:37.258Z,100163.75
2022-10-29T13:02:47.179Z,100160.06
2022-10-29T13:05:17.584Z,100154.00
2022-10-29T13:08:20.611Z,100167.41
2022-10-29T13:10:53.361Z,100163.88
2022-10-29T13:13:56.355Z,100178.00
2022-10-29T13:16:32.262Z,100170.97
2022-10-29T13:19:23.309Z,100173.31
2022-10-29T13:22:03.028Z,100188.91
2022-10-29T13:24:31.785Z,100189.88
2022-10-29T13:27:09.656Z,100188.63
2022-10-29T13:29:42.101Z,100192.28
2022-10-29T13:32:29.532Z,100191.31
2022-10-29T13:34:59.968Z,100194.97
2022-10-29T13:37:52.004Z,100204.72
2022-10-29T13:41:02.910Z,100203.88
2022-10-29T13:43:33.740Z,100215.75
2022-10-29T13:46:29.274Z,100228.91
2022-10-29T13:49:00.335Z,100225.50
2022-10-29T13:51:42.897Z,100234.13
2022-10-29T13:54:18.820Z,100239.63
2022-10-29T13:56:51.336Z,100248.81
2022-10-29T13:59:29.358Z,100255.47
2022-10-29T14:02:15.783Z,100271.84
2022-10-29T14:04:50.111Z,100263.63
2022-10-29T14:07:22.873Z,100270.56
2022-10-29T14:09:56.125Z,100265.91
2022-10-29T14:12:28.864Z,100263.22
2022-10-29T14:15:03.999Z,100265.91
2022-10-29T14:17:32.016Z,100260.69
2022-10-29T14:20:01.350Z,100273.97
2022-10-29T14:22:36.480Z,100272.13
2022-10-29T14:25:21.460Z,100281.91
2022-10-29T14:28:08.841Z,100283.03
2022-10-29T14:30:38.176Z,100283.88
2022-10-29T14:33:19.251Z,100286.84
2022-10-29T14:35:47.980Z,100287.69
2022-10-29T14:38:17.277Z,100289.53
2022-10-29T14:40:47.500Z,100289.53
2022-10-29T14:43:25.057Z,100293.06
2022-10-29T14:45:55.558Z,100299.56
2022-10-29T14:48:23.736Z,100295.31
2022-10-29T14:50:56.595Z,100298.81
2022-10-29T14:53:31.123Z,100306.75
2022-10-29T14:56:01.217Z,100306.16
2022-10-29T14:58:32.222Z,100313.09
2022-10-29T15:01:05.972Z,100315.06
2022-10-29T15:03:36.113Z,100320.44
2022-10-29T15:06:16.673Z,100281.34
2022-10-29T15:08:46.267Z,100321.41
2022-10-29T15:11:38.095Z,100337.41
2022-10-29T15:14:25.194Z,100339.50
2022-10-29T15:16:54.605Z,100340.34
2022-10-29T15:19:22.819Z,100352.91
2022-10-29T15:21:51.403Z,100345.97
2022-10-29T15:24:22.951Z,100348.81
2022-10-29T15:26:55.088Z,100354.19
2022-10-29T15:29:30.609Z,100356.97
2022-10-29T15:32:03.002Z,100370.53
2022-10-29T15:34:34.076Z,100374.09
2022-10-29T15:37:22.603Z,100366.88
2022-10-29T15:40:02.337Z,100364.47
2022-10-29T15:42:32.988Z,100379.56
2022-10-29T15:45:27.189Z,100383.25
2022-10-29T15:48:21.070Z,100362.56
2022-10-29T15:50:48.960Z,100383.53
2022-10-29T15:53:17.951Z,100382.50
2022-10-29T15:55:46.389Z,100395.94
2022-10-29T15:58:16.215Z,100395.13
2022-10-29T16:00:44.707Z,100395.22
2022-10-29T16:03:16.710Z,100392.53
2022-10-29T16:05:47.015Z,100402.41
2022-10-29T16:08:24.752Z,100414.97
2022-10-29T16:10:53.318Z,100405.06
2022-10-29T16:13:22.376Z,100405.38
2022-10-29T16:15:50.270Z,100407.34
2022-10-29T16:18:19.510Z,100405.50
2022-10-29T16:20:48.095Z,100413.56
2022-10-29T16:23:16.299Z,100413.69
2022-10-29T16:25:44.234Z,100421.75
2022-10-29T16:28:12.108Z,100414.69
2022-10-29T16:33:13.415Z,100424.56
2022-10-29T16:35:42.691Z,100439.69
2022-10-29T16:38:11.203Z,100447.03
2022-10-29T16:40:39.568Z,100456.91
2022-10-29T16:43:07.450Z,100445.31
2022-10-29T16:45:35.315Z,100449.97
2022-10-29T16:48:03.370Z,100454.31
2022-10-29T16:50:33.087Z,100454.31
2022-10-29T16:53:06.301Z,100452.50
2022-10-29T16:55:36.669Z,100452.03
2022-10-29T16:58:04.980Z,100452.44
2022-10-29T17:00:36.368Z,100475.09
2022-10-29T17:03:09.920Z,100469.72
2022-10-29T17:05:40.954Z,100469.84
2022-10-29T17:08:10.957Z,100482.28
2022-10-29T17:10:38.903Z,100478.03
2022-10-29T17:13:09.094Z,100485.09
2022-10-29T17:15:40.133Z,100499.47
2022-10-29T17:18:08.246Z,100499.63
2022-10-29T17:20:36.168Z,100500.03
2022-10-29T17:23:04.143Z,100494.38
2022-10-29T17:25:33.423Z,100501.69
2022-10-29T17:28:01.295Z,100506.81
2022-10-29T17:30:29.259Z,100524.16
2022-10-29T17:32:57.381Z,100516.38
2022-10-29T17:35:25.453Z,100512.69
2022-10-29T17:37:53.304Z,100533.91
2022-10-29T17:40:21.337Z,100530.38
2022-10-29T17:42:50.553Z,100534.75
2022-10-29T17:45:20.492Z,100533.03
2022-10-29T17:47:48.379Z,100547.31
2022-10-29T17:50:16.346Z,100564.28
2022-10-29T17:52:44.384Z,100564.41
2022-10-29T17:55:12.245Z,100569.78
2022-10-29T17:57:40.150Z,100566.09
2022-10-29T18:00:11.218Z,100575.00
2022-10-29T18:02:39.195Z,100566.25
2022-10-29T18:05:07.447Z,100583.19
2022-10-29T18:07:35.459Z,100584.03
2022-10-29T18:10:03.370Z,100584.41
2022-10-29T18:12:31.287Z,100604.66
2022-10-29T18:14:59.156Z,100595.75
2022-10-29T18:17:28.987Z,100596.63
2022-10-29T18:19:56.903Z,100604.66
2022-10-29T18:22:24.823Z,100606.50
2022-10-29T18:24:52.695Z,100627.94
2022-10-29T18:27:21.159Z,100632.31
2022-10-29T18:29:49.147Z,100620.75
2022-10-29T18:32:17.411Z,100636.00
2022-10-29T18:34:46.711Z,100639.53
2022-10-29T18:37:14.683Z,100640.66
2022-10-29T18:39:42.559Z,100639.78
2022-10-29T18:42:10.495Z,100646.00
2022-10-29T18:44:39.133Z,100648.69
2022-10-29T18:47:09.868Z,100661.97
2022-10-29T18:49:37.837Z,100668.31
2022-10-29T18:52:07.113Z,100662.94
2022-10-29T18:54:35.088Z,100680.03
2022-10-29T18:57:03.001Z,100666.22
2022-10-29T18:59:31.042Z,100684.41
2022-10-29T19:01:59.035Z,100689.19
2022-10-29T19:04:26.999Z,100686.00
2022-10-29T19:06:55.709Z,100710.50
2022-10-29T19:09:25.128Z,100705.03
2022-10-29T19:11:55.394Z,100714.91
2022-10-29T19:14:26.362Z,100723.81
2022-10-29T19:16:54.252Z,100725.66
2022-10-29T19:19:24.005Z,100725.66
2022-10-29T19:21:52.099Z,100722.84
2022-10-29T19:24:20.185Z,100727.34
2022-10-29T19:26:49.511Z,100733.69
2022-10-29T19:29:17.514Z,100739.16
2022-10-29T19:31:46.417Z,100749.06
2022-10-29T19:34:14.482Z,100752.72
2022-10-29T19:36:42.423Z,100750.03
2022-10-29T19:39:10.380Z,100751.84
2022-10-29T19:41:38.357Z,100763.69
2022-10-29T19:44:07.776Z,100760.03
2022-10-29T19:46:35.961Z,100769.25
2022-10-29T19:49:03.902Z,100775.34
2022-10-29T19:51:31.936Z,100777.22
2022-10-29T19:54:02.083Z,100778.16
2022-10-29T19:56:30.113Z,100786.59
2022-10-29T19:58:57.977Z,100788.91
2022-10-29T20:01:27.325Z,100796.94
2022-10-29T20:03:55.364Z,100799.75
2022-10-29T20:06:23.256Z,100805.97
2022-10-29T20:08:51.244Z,100806.09
2022-10-29T20:11:19.169Z,100815.09
2022-10-29T20:13:47.087Z,100816.09
2022-10-29T20:16:17.284Z,100818.66
2022-10-29T20:18:47.396Z,100830.38
2022-10-29T20:21:15.769Z,100837.56
2022-10-29T20:23:44.735Z,100826.44
2022-10-29T20:26:13.317Z,100836.69
2022-10-29T20:28:41.223Z,100828.03
2022-10-29T20:31:29.730Z,100847.44
2022-10-29T20:34:01.348Z,100857.53
2022-10-29T20:36:31.578Z,100869.34
2022-10-29T20:38:59.871Z,100873.88
2022-10-29T20:41:28.852Z,100872.16
2022-10-29T20:43:59.375Z,100869.47
2022-10-29T20:46:27.837Z,100864.13
2022-10-29T20:48:55.798Z,100862.53
2022-10-29T20:51:26.024Z,100860.72
2022-10-29T20:53:54.658Z,100864.34
2022-10-29T20:56:24.285Z,100863.38
2022-10-29T20:58:52.180Z,100871.53
2022-10-29T21:01:22.922Z,100876.91
2022-10-29T21:03:51.603Z,100885.06
2022-10-29T21:06:20.400Z,100888.50
2022-10-29T21:08:50.926Z,100887.63
2022-10-29T21:11:20.630Z,100869.91
2022-10-29T21:13:48.772Z,100886.03
2022-10-29T21:16:18.907Z,100889.56
2022-10-29T21:18:49.428Z,100896.91
2022-10-29T21:21:17.958Z,100908.59
2022-10-29T21:23:46.404Z,100906.03
2022-10-29T21:26:18.083Z,100904.22
2022-10-29T21:28:46.583Z,100908.72
2022-10-29T21:31:14.513Z,100913.22
2022-10-29T21:33:42.483Z,100910.53
2022-10-29T21:36:13.034Z,100915.03
2022-10-29T21:38:41.454Z,100916.97
2022-10-29T21:41:09.755Z,100917.13
2022-10-29T21:43:39.261Z,100918.94
2022-10-29T21:46:07.688Z,100928.91
2022-10-29T21:48:35.732Z,100902.28
2022-10-29T21:51:06.103Z,100926.22
2022-10-29T21:53:34.527Z,100928.91
2022-10-29T21:56:03.644Z,100917.56
2022-10-29T21:58:31.805Z,100912.06
2022-10-29T22:01:07.166Z,100913.78
2022-10-29T22:03:36.199Z,100892.50
2022-10-29T22:06:05.999Z,100888.88
2022-10-29T22:08:34.024Z,100915.75
2022-10-29T22:11:02.487Z,100928.16
2022-10-29T22:13:31.380Z,100927.31
2022-10-29T22:15:59.392Z,100939.88
2022-10-29T22:18:29.146Z,100935.25
2022-10-29T22:21:05.208Z,100932.56
2022-10-29T22:23:33.354Z,100935.59
2022-10-29T22:26:01.605Z,100943.38
2022-10-29T22:28:29.550Z,100955.97
2022-10-29T22:31:01.689Z,100947.94
2022-10-29T22:33:31.410Z,100964.00
2022-10-29T22:36:05.499Z,100963.25
2022-10-29T22:38:33.391Z,100984.59
2022-10-29T22:41:05.606Z,100988.16
2022-10-29T22:43:33.486Z,100995.41
2022-10-29T22:46:01.735Z,100990.94
2022-10-29T22:48:31.084Z,100993.72
2022-10-29T22:51:03.331Z,100992.75
2022-10-29T22:53:31.349Z,100987.63
2022-10-29T22:55:59.800Z,100985.41
2022-10-29T22:58:27.762Z,100994.16
2022-10-29T23:01:02.711Z,101001.25
2022-10-29T23:03:32.358Z,101001.34
2022-10-29T23:06:01.876Z,101004.50
2022-10-29T23:08:30.041Z,101010.47
2022-10-29T23:10:58.025Z,101001.41
2022-10-29T23:13:25.994Z,101016.72
2022-10-29T23:15:54.448Z,101018.53
2022-10-29T23:18:22.351Z,101033.00
2022-10-29T23:20:58.872Z,101036.34
2022-10-29T23:23:26.976Z,101040.97
2022-10-29T23:25:58.134Z,101038.16
2022-10-29T23:28:26.164Z,101050.59
2022-10-29T23:30:54.938Z,101041.19
2022-10-29T23:33:23.391Z,101038.16
2022-10-29T23:35:52.644Z,101046.19
2022-10-29T23:38:20.521Z,101039.13
2022-10-29T23:40:49.228Z,101041.69
2022-10-29T23:43:17.093Z,101032.78
2022-10-29T23:45:44.952Z,101039.13
2022-10-29T23:48:12.883Z,101042.66
2022-10-29T23:50:41.302Z,101037.28
2022-10-29T23:53:10.710Z,101039.97
2022-10-29T23:55:38.723Z,101039.25
2022-10-29T23:58:06.767Z,101045.47
